createdAt,value
2022-09-24T00:01:15.302Z,96811.84
2022-09-24T00:03:45.524Z,96800.13
2022-09-24T00:06:15.708Z,96799.38
2022-09-24T00:08:42.441Z,96798.69
2022-09-24T00:11:12.042Z,96794.41
2022-09-24T00:13:39.710Z,96798.59
2022-09-24T00:16:14.397Z,96807.47
2022-09-24T00:18:41.985Z,96797.78
2022-09-24T00:21:32.672Z,96792.19
2022-09-24T00:24:02.302Z,96789.44
2022-09-24T00:26:47.839Z,96796.28
2022-09-24T00:29:20.611Z,96794.75
2022-09-24T00:31:48.391Z,96795.38
2022-09-24T00:34:15.105Z,96787.72
2022-09-24T00:36:42.119Z,96796.59
2022-09-24T00:39:08.903Z,96797.94
2022-09-24T00:41:37.915Z,96802.03
2022-09-24T00:44:38.800Z,96792.94
2022-09-24T00:47:06.101Z,96786.00
2022-09-24T00:49:32.924Z,96786.66
2022-09-24T00:51:59.673Z,96785.81
2022-09-24T00:54:28.795Z,96780.94
2022-09-24T00:56:57.112Z,96787.06
2022-09-24T00:59:24.255Z,96783.63
2022-09-24T01:01:52.130Z,96779.41
2022-09-24T01:04:21.299Z,96780.03
2022-09-24T01:06:49.247Z,96774.44
2022-09-24T01:09:17.191Z,96764.75
2022-09-24T01:11:46.970Z,96768.13
2022-09-24T01:14:31.433Z,96766.63
2022-09-24T01:17:43.008Z,96764.56
2022-09-24T01:20:37.362Z,96762.34
2022-09-24T01:23:26.013Z,96755.31
2022-09-24T01:26:01.817Z,96752.47
2022-09-24T01:28:58.875Z,96749.63
2022-09-24T01:31:31.158Z,96739.13
2022-09-24T01:33:59.672Z,96744.63
2022-09-24T01:36:27.216Z,96744.53
2022-09-24T01:38:55.739Z,96739.75
2022-09-24T01:41:22.561Z,96745.88
2022-09-24T01:43:49.478Z,96741.09
2022-09-24T01:46:19.855Z,96731.38
2022-09-24T01:48:46.711Z,96724.84
2022-09-24T01:51:26.892Z,96721.09
2022-09-24T01:54:02.684Z,96717.53
2022-09-24T01:56:45.986Z,96709.06
2022-09-24T01:59:15.864Z,96713.88
2022-09-24T02:02:07.507Z,96712.44
2022-09-24T02:04:39.176Z,96712.44
2022-09-24T02:07:13.393Z,96712.38
2022-09-24T02:09:42.628Z,96716.53
2022-09-24T02:12:18.540Z,96708.16
2022-09-24T02:15:13.465Z,96712.38
2022-09-24T02:17:43.803Z,96712.97
2022-09-24T02:20:14.119Z,96710.34
2022-09-24T02:22:41.123Z,96702.66
2022-09-24T02:25:09.676Z,96706.75
2022-09-24T02:27:36.427Z,96708.16
2022-09-24T02:30:03.160Z,96710.94
2022-09-24T02:32:32.496Z,96706.75
2022-09-24T02:35:01.992Z,96698.50
2022-09-24T02:37:29.222Z,96700.53
2022-09-24T02:39:56.074Z,96689.53
2022-09-24T02:42:22.989Z,96690.25
2022-09-24T02:44:49.951Z,96688.19
2022-09-24T02:47:16.558Z,96684.03
2022-09-24T02:49:43.251Z,96687.50
2022-09-24T02:52:17.381Z,96682.59
2022-09-24T02:54:45.383Z,96679.22
2022-09-24T02:57:12.047Z,96677.09
2022-09-24T02:59:38.745Z,96681.91
2022-09-24T03:02:05.762Z,96684.66
2022-09-24T03:04:32.637Z,96681.19
2022-09-24T03:06:59.515Z,96677.03
2022-09-24T03:09:26.299Z,96676.31
2022-09-24T03:11:52.948Z,96669.34
2022-09-24T03:14:19.671Z,96661.09
2022-09-24T03:16:46.351Z,96667.94
2022-09-24T03:19:13.079Z,96663.78
2022-09-24T03:21:39.716Z,96664.41
2022-09-24T03:24:06.797Z,96673.38
2022-09-24T03:26:33.494Z,96662.25
2022-09-24T03:29:00.237Z,96654.69
2022-09-24T03:31:26.982Z,96670.50
2022-09-24T03:33:54.530Z,96673.88
2022-09-24T03:36:24.514Z,96669.00
2022-09-24T03:38:56.355Z,96658.69
2022-09-24T03:41:24.811Z,96661.44
2022-09-24T03:43:51.443Z,96669.00
2022-09-24T03:46:19.306Z,96664.13
2022-09-24T03:48:47.432Z,96653.00
2022-09-24T03:51:16.651Z,96660.56
2022-09-24T03:53:43.358Z,96657.78
2022-09-24T03:56:11.902Z,96661.88
2022-09-24T03:58:39.372Z,96660.47
2022-09-24T04:01:07.185Z,96659.66
2022-09-24T04:03:33.938Z,96658.22
2022-09-24T04:06:00.578Z,96649.97
2022-09-24T04:08:27.399Z,96638.88
2022-09-24T04:10:55.462Z,96638.19
2022-09-24T04:13:22.520Z,96644.97
2022-09-24T04:15:50.430Z,96637.34
2022-09-24T04:18:18.599Z,96637.97
2022-09-24T04:20:45.621Z,96635.94
2022-09-24T04:23:12.682Z,96636.56
2022-09-24T04:25:40.683Z,96620.75
2022-09-24T04:28:08.461Z,96622.81
2022-09-24T04:30:36.220Z,96626.16
2022-09-24T04:33:03.128Z,96617.81
2022-09-24T04:35:31.775Z,96629.53
2022-09-24T04:37:59.643Z,96637.78
2022-09-24T04:40:27.239Z,96625.38
2022-09-24T04:42:54.251Z,96630.16
2022-09-24T04:45:21.857Z,96637.69
2022-09-24T04:48:07.520Z,96642.50
2022-09-24T04:50:34.437Z,96639.13
2022-09-24T04:53:02.410Z,96645.25
2022-09-24T04:55:29.126Z,96650.75
2022-09-24T04:57:59.374Z,96652.06
2022-09-24T05:00:26.172Z,96647.25
2022-09-24T05:03:00.987Z,96645.13
2022-09-24T05:05:28.229Z,96648.59
2022-09-24T05:07:56.941Z,96654.81
2022-09-24T05:10:24.958Z,96647.88
2022-09-24T05:12:52.219Z,96638.91
2022-09-24T05:15:21.920Z,96636.16
2022-09-24T05:17:48.820Z,96641.06
2022-09-24T05:20:16.894Z,96647.25
2022-09-24T05:22:48.250Z,96658.88
2022-09-24T05:25:16.333Z,96656.25
2022-09-24T05:27:51.175Z,96654.81
2022-09-24T05:30:18.982Z,96654.22
2022-09-24T05:32:46.342Z,96648.72
2022-09-24T05:35:13.775Z,96650.13
2022-09-24T05:37:41.118Z,96653.59
2022-09-24T05:40:26.921Z,96656.34
2022-09-24T05:43:00.443Z,96665.28
2022-09-24T05:45:27.585Z,96666.09
2022-09-24T05:47:54.587Z,96659.88
2022-09-24T05:50:21.512Z,96653.06
2022-09-24T05:52:48.247Z,96662.03
2022-09-24T05:55:15.043Z,96657.03
2022-09-24T05:57:41.779Z,96663.44
2022-09-24T06:00:09.209Z,96657.66
2022-09-24T06:02:41.903Z,96656.88
2022-09-24T06:05:09.295Z,96658.59
2022-09-24T06:07:35.910Z,96658.50
2022-09-24T06:10:02.676Z,96655.84
2022-09-24T06:12:29.325Z,96658.09
2022-09-24T06:14:56.310Z,96658.28
2022-09-24T06:17:23.703Z,96662.84
2022-09-24T06:19:50.529Z,96655.19
2022-09-24T06:22:17.203Z,96660.97
2022-09-24T06:24:44.049Z,96659.94
2022-09-24T06:27:10.754Z,96664.22
2022-09-24T06:29:37.516Z,96660.81
2022-09-24T06:32:04.780Z,96665.72
2022-09-24T06:34:31.507Z,96666.00
2022-09-24T06:36:58.191Z,96673.72
2022-09-24T06:39:28.753Z,96675.88
2022-09-24T06:41:56.390Z,96669.84
2022-09-24T06:44:22.989Z,96672.06
2022-09-24T06:46:49.748Z,96679.50
2022-09-24T06:49:16.428Z,96678.72
2022-09-24T06:51:43.180Z,96678.28
2022-09-24T06:54:09.882Z,96679.97
2022-09-24T06:56:36.605Z,96682.91
2022-09-24T06:59:03.317Z,96688.53
2022-09-24T07:01:30.056Z,96688.09
2022-09-24T07:03:56.794Z,96689.97
2022-09-24T07:06:23.584Z,96687.56
2022-09-24T07:08:51.717Z,96686.22
2022-09-24T07:11:18.502Z,96683.59
2022-09-24T07:13:45.188Z,96689.81
2022-09-24T07:16:12.025Z,96687.81
2022-09-24T07:18:38.812Z,96689.75
2022-09-24T07:21:05.688Z,96693.63
2022-09-24T07:23:32.362Z,96698.91
2022-09-24T07:25:59.058Z,96699.81
2022-09-24T07:28:26.133Z,96701.91
2022-09-24T07:30:57.713Z,96699.22
2022-09-24T07:33:24.595Z,96709.72
2022-09-24T07:35:51.374Z,96713.19
2022-09-24T07:38:18.141Z,96712.56
2022-09-24T07:40:45.017Z,96717.53
2022-09-24T07:43:14.212Z,96714.28
2022-09-24T07:45:41.834Z,96711.81
2022-09-24T07:48:09.809Z,96716.31
2022-09-24T07:50:39.538Z,96713.09
2022-09-24T07:53:06.619Z,96711.28
2022-09-24T07:55:41.084Z,96717.50
2022-09-24T07:58:09.239Z,96720.66
2022-09-24T08:00:35.978Z,96727.44
2022-09-24T08:03:05.699Z,96725.06
2022-09-24T08:05:33.262Z,96728.06
2022-09-24T08:08:00.277Z,96731.63
2022-09-24T08:10:28.514Z,96741.16
2022-09-24T08:13:00.705Z,96734.59
2022-09-24T08:15:28.019Z,96730.41
2022-09-24T08:17:54.739Z,96741.75
2022-09-24T08:20:23.424Z,96744.03
2022-09-24T08:22:50.060Z,96745.31
2022-09-24T08:25:16.772Z,96743.47
2022-09-24T08:27:43.474Z,96744.53
2022-09-24T08:30:10.842Z,96737.19
2022-09-24T08:32:37.550Z,96732.72
2022-09-24T08:35:13.620Z,96743.38
2022-09-24T08:37:50.974Z,96735.31
2022-09-24T08:40:20.694Z,96744.69
2022-09-24T08:43:37.437Z,96745.59
2022-09-24T08:46:35.817Z,96744.94
2022-09-24T08:49:04.344Z,96741.03
2022-09-24T08:51:36.655Z,96744.75
2022-09-24T08:54:06.999Z,96746.28
2022-09-24T08:56:34.512Z,96743.97
2022-09-24T08:59:03.372Z,96738.03
2022-09-24T09:01:42.068Z,96743.00
2022-09-24T09:04:20.875Z,96750.19
2022-09-24T09:07:15.468Z,96753.09
2022-09-24T09:09:46.664Z,96753.19
2022-09-24T09:12:18.484Z,96752.59
2022-09-24T09:15:05.443Z,96758.50
2022-09-24T09:17:35.084Z,96749.63
2022-09-24T09:20:06.636Z,96752.72
2022-09-24T09:22:40.452Z,96750.97
2022-09-24T09:25:19.824Z,96761.66
2022-09-24T09:27:57.821Z,96765.59
2022-09-24T09:30:24.718Z,96763.13
2022-09-24T09:33:29.695Z,96765.94
2022-09-24T09:36:11.404Z,96762.16
2022-09-24T09:39:10.060Z,96760.22
2022-09-24T09:41:56.839Z,96760.44
2022-09-24T09:44:28.575Z,96764.94
2022-09-24T09:47:04.049Z,96759.78
2022-09-24T09:49:34.854Z,96763.72
2022-09-24T09:52:05.447Z,96753.72
2022-09-24T09:54:39.553Z,96761.25
2022-09-24T09:57:06.860Z,96760.91
2022-09-24T09:59:35.609Z,96761.06
2022-09-24T10:02:02.544Z,96761.47
2022-09-24T10:04:41.646Z,96752.97
2022-09-24T10:07:16.690Z,96750.66
2022-09-24T10:09:44.951Z,96747.06
2022-09-24T10:12:22.099Z,96753.91
2022-09-24T10:15:03.054Z,96750.06
2022-09-24T10:17:35.215Z,96751.91
2022-09-24T10:20:07.186Z,96750.19
2022-09-24T10:22:35.181Z,96743.25
2022-09-24T10:25:01.930Z,96740.13
2022-09-24T10:27:32.996Z,96740.25
2022-09-24T10:30:18.772Z,96738.22
2022-09-24T10:32:45.989Z,96740.06
2022-09-24T10:35:35.897Z,96740.19
2022-09-24T10:38:18.856Z,96737.88
2022-09-24T10:40:46.589Z,96732.81
2022-09-24T10:43:21.600Z,96740.56
2022-09-24T10:46:23.269Z,96725.38
2022-09-24T10:49:04.378Z,96726.13
2022-09-24T10:51:57.295Z,96725.56
2022-09-24T10:54:40.963Z,96724.34
2022-09-24T10:57:33.517Z,96720.25
2022-09-24T11:00:59.385Z,96723.00
2022-09-24T11:03:29.123Z,96722.91
2022-09-24T11:06:18.358Z,96722.25
2022-09-24T11:09:06.692Z,96722.00
2022-09-24T11:11:56.227Z,96730.69
2022-09-24T11:14:41.588Z,96724.28
2022-09-24T11:17:15.897Z,96724.66
2022-09-24T11:19:48.698Z,96719.81
2022-09-24T11:22:47.844Z,96718.59
2022-09-24T11:25:20.251Z,96729.13
2022-09-24T11:28:15.052Z,96722.56
2022-09-24T11:30:51.539Z,96715.69
2022-09-24T11:33:43.462Z,96710.13
2022-09-24T11:36:16.278Z,96700.97
2022-09-24T11:39:21.505Z,96704.81
2022-09-24T11:41:50.583Z,96705.66
2022-09-24T11:44:48.034Z,96701.91
2022-09-24T11:47:39.790Z,96699.91
2022-09-24T11:50:34.085Z,96699.69
2022-09-24T11:53:09.348Z,96701.09
2022-09-24T11:55:49.448Z,96689.97
2022-09-24T11:58:22.047Z,96680.34
2022-09-24T12:00:53.974Z,96679.09
2022-09-24T12:03:26.355Z,96683.38
2022-09-24T12:06:16.335Z,96678.63
2022-09-24T12:08:47.285Z,96669.53
2022-09-24T12:11:19.024Z,96665.78
2022-09-24T12:14:18.430Z,96664.03
2022-09-24T12:16:47.863Z,96659.16
2022-09-24T12:19:22.733Z,96662.00
2022-09-24T12:21:52.762Z,96649.50
2022-09-24T12:24:35.424Z,96658.53
2022-09-24T12:27:07.542Z,96654.53
2022-09-24T12:30:16.798Z,96651.56
2022-09-24T12:32:55.976Z,96659.06
2022-09-24T12:35:23.317Z,96665.88
2022-09-24T12:37:53.830Z,96658.59
2022-09-24T12:40:36.097Z,96659.09
2022-09-24T12:43:07.708Z,96664.72
2022-09-24T12:45:35.645Z,96652.22
2022-09-24T12:48:02.688Z,96653.09
2022-09-24T12:50:32.453Z,96655.03
2022-09-24T12:53:30.244Z,96659.66
2022-09-24T12:56:01.042Z,96664.13
2022-09-24T12:58:42.230Z,96649.19
2022-09-24T13:01:32.409Z,96656.25
2022-09-24T13:04:14.874Z,96659.69
2022-09-24T13:06:45.075Z,96652.81
2022-09-24T13:09:38.696Z,96649.19
2022-09-24T13:12:19.939Z,96641.91
2022-09-24T13:15:02.683Z,96646.84
2022-09-24T13:17:44.819Z,96660.97
2022-09-24T13:20:26.033Z,96670.78
2022-09-24T13:22:58.575Z,96683.97
2022-09-24T13:25:26.568Z,96705.41
2022-09-24T13:28:02.986Z,96673.31
2022-09-24T13:30:30.262Z,96687.66
2022-09-24T13:33:24.280Z,96700.13
2022-09-24T13:36:03.308Z,96692.00
2022-09-24T13:38:45.385Z,96695.72
2022-09-24T13:41:27.464Z,96694.94
2022-09-24T13:44:01.592Z,96701.66
2022-09-24T13:46:30.048Z,96699.84
2022-09-24T13:49:01.594Z,96693.75
2022-09-24T13:51:30.301Z,96689.47
2022-09-24T13:53:59.985Z,96690.16
2022-09-24T13:56:26.848Z,96683.06
2022-09-24T13:59:04.970Z,96684.91
2022-09-24T14:01:37.101Z,96690.72
2022-09-24T14:04:06.440Z,96684.69
2022-09-24T14:06:36.448Z,96692.97
2022-09-24T14:09:15.175Z,96691.97
2022-09-24T14:11:52.528Z,96685.03
2022-09-24T14:14:22.252Z,96680.56
2022-09-24T14:16:49.058Z,96678.47
2022-09-24T14:19:16.384Z,96674.03
2022-09-24T14:21:49.897Z,96664.44
2022-09-24T14:24:27.378Z,96665.16
2022-09-24T14:26:58.504Z,96679.47
2022-09-24T14:29:29.175Z,96685.28
2022-09-24T14:31:59.630Z,96685.41
2022-09-24T14:34:37.906Z,96689.19
2022-09-24T14:37:17.385Z,96680.72
2022-09-24T14:39:46.731Z,96673.91
2022-09-24T14:42:21.148Z,96669.88
2022-09-24T14:44:48.992Z,96666.09
2022-09-24T14:47:41.975Z,96667.03
2022-09-24T14:50:39.533Z,96652.03
2022-09-24T14:53:19.495Z,96657.50
2022-09-24T14:55:46.614Z,96657.78
2022-09-24T14:58:28.543Z,96651.16
2022-09-24T15:01:18.535Z,96648.78
2022-09-24T15:03:50.195Z,96644.03
2022-09-24T15:06:19.505Z,96661.91
2022-09-24T15:08:58.157Z,96655.75
2022-09-24T15:11:27.920Z,96665.47
2022-09-24T15:13:59.731Z,96661.66
2022-09-24T15:16:34.274Z,96663.56
2022-09-24T15:19:07.223Z,96668.00
2022-09-24T15:21:34.618Z,96667.41
2022-09-24T15:24:01.697Z,96676.41
2022-09-24T15:26:30.443Z,96685.88
2022-09-24T15:28:58.424Z,96679.81
2022-09-24T15:31:25.878Z,96691.31
2022-09-24T15:33:52.862Z,96690.50
2022-09-24T15:36:21.168Z,96698.97
2022-09-24T15:38:52.354Z,96691.16
2022-09-24T15:41:19.902Z,96688.63
2022-09-24T15:43:46.578Z,96689.88
2022-09-24T15:46:13.336Z,96683.66
2022-09-24T15:48:40.177Z,96688.31
2022-09-24T15:51:11.775Z,96690.06
2022-09-24T15:53:41.119Z,96696.16
2022-09-24T15:56:08.109Z,96694.09
2022-09-24T15:58:35.113Z,96692.91
2022-09-24T16:01:02.065Z,96695.53
2022-09-24T16:03:30.475Z,96687.50
2022-09-24T16:05:59.133Z,96688.72
2022-09-24T16:08:26.794Z,96688.25
2022-09-24T16:10:54.032Z,96693.59
2022-09-24T16:13:24.156Z,96692.91
2022-09-24T16:15:50.982Z,96692.50
2022-09-24T16:18:18.027Z,96687.13
2022-09-24T16:20:46.281Z,96698.47
2022-09-24T16:23:14.889Z,96695.31
2022-09-24T16:25:43.249Z,96694.06
2022-09-24T16:28:09.938Z,96693.75
2022-09-24T16:30:38.746Z,96688.94
2022-09-24T16:33:05.739Z,96698.09
2022-09-24T16:35:32.442Z,96696.50
2022-09-24T16:37:59.195Z,96692.91
2022-09-24T16:40:25.948Z,96686.72
2022-09-24T16:42:52.724Z,96687.44
2022-09-24T16:45:19.703Z,96686.09
2022-09-24T16:47:46.488Z,96688.38
2022-09-24T16:50:13.116Z,96678.91
2022-09-24T16:52:40.309Z,96686.75
2022-09-24T16:55:07.705Z,96687.03
2022-09-24T16:57:37.212Z,96685.22
2022-09-24T17:00:10.139Z,96693.13
2022-09-24T17:02:37.880Z,96695.28
2022-09-24T17:05:05.417Z,96692.03
2022-09-24T17:07:33.439Z,96692.50
2022-09-24T17:10:18.350Z,96690.31
2022-09-24T17:12:47.063Z,96689.59
2022-09-24T17:15:14.834Z,96688.09
2022-09-24T17:17:49.172Z,96687.19
2022-09-24T17:20:17.187Z,96696.00
2022-09-24T17:22:43.841Z,96686.88
2022-09-24T17:25:10.901Z,96686.00
2022-09-24T17:27:37.603Z,96700.97
2022-09-24T17:30:06.171Z,96697.25
2022-09-24T17:32:32.965Z,96699.13
2022-09-24T17:34:59.787Z,96706.44
2022-09-24T17:37:27.499Z,96706.03
2022-09-24T17:39:54.246Z,96704.16
2022-09-24T17:42:21.039Z,96706.66
2022-09-24T17:44:47.773Z,96701.53
2022-09-24T17:47:14.412Z,96701.28
2022-09-24T17:49:41.236Z,96707.78
2022-09-24T17:52:07.934Z,96709.19
2022-09-24T17:54:34.855Z,96710.78
2022-09-24T17:57:02.124Z,96711.16
2022-09-24T17:59:29.092Z,96722.50
2022-09-24T18:01:55.862Z,96725.63
2022-09-24T18:04:25.698Z,96726.50
2022-09-24T18:06:52.611Z,96726.75
2022-09-24T18:09:19.946Z,96729.78
2022-09-24T18:11:49.073Z,96718.19
2022-09-24T18:14:20.271Z,96729.38
2022-09-24T18:16:49.455Z,96724.03
2022-09-24T18:19:17.491Z,96722.81
2022-09-24T18:21:45.000Z,96723.59
2022-09-24T18:24:11.796Z,96719.56
2022-09-24T18:26:39.927Z,96721.69
2022-09-24T18:29:11.626Z,96716.34
2022-09-24T18:31:38.727Z,96724.00
2022-09-24T18:34:07.547Z,96723.34
2022-09-24T18:36:36.701Z,96713.03
2022-09-24T18:39:05.633Z,96718.66
2022-09-24T18:41:32.881Z,96724.25
2022-09-24T18:43:59.960Z,96722.19
2022-09-24T18:46:29.066Z,96723.53
2022-09-24T18:48:56.891Z,96722.19
2022-09-24T18:51:26.155Z,96727.09
2022-09-24T18:54:05.035Z,96717.38
2022-09-24T18:56:32.066Z,96723.00
2022-09-24T18:59:09.188Z,96727.16
2022-09-24T19:01:37.745Z,96726.56
2022-09-24T19:04:04.829Z,96725.81
2022-09-24T19:06:34.251Z,96730.63
2022-09-24T19:09:01.174Z,96728.59
2022-09-24T19:11:30.630Z,96726.56
2022-09-24T19:13:58.578Z,96731.34
2022-09-24T19:16:25.770Z,96736.88
2022-09-24T19:18:53.365Z,96724.41
2022-09-24T19:21:20.994Z,96734.75
2022-09-24T19:23:49.429Z,96736.09
2022-09-24T19:26:19.346Z,96731.28
2022-09-24T19:28:47.042Z,96738.91
2022-09-24T19:31:16.583Z,96734.75
2022-09-24T19:33:44.216Z,96734.09
2022-09-24T19:36:15.709Z,96736.78
2022-09-24T19:38:42.524Z,96740.97
2022-09-24T19:41:15.232Z,96736.09
2022-09-24T19:43:45.560Z,96729.84
2022-09-24T19:46:14.658Z,96725.66
2022-09-24T19:48:43.745Z,96728.34
2022-09-24T19:51:18.512Z,96727.63
2022-09-24T19:53:54.351Z,96729.69
2022-09-24T19:56:23.437Z,96733.78
2022-09-24T19:58:54.111Z,96728.88
2022-09-24T20:01:27.991Z,96728.81
2022-09-24T20:03:55.735Z,96720.53
2022-09-24T20:06:25.153Z,96717.69
2022-09-24T20:08:51.948Z,96719.72
2022-09-24T20:11:21.314Z,96720.34
2022-09-24T20:13:49.049Z,96721.00
2022-09-24T20:16:20.389Z,96724.38
2022-09-24T20:18:48.305Z,96722.22
2022-09-24T20:21:17.239Z,96724.94
2022-09-24T20:23:45.313Z,96721.47
2022-09-24T20:26:31.700Z,96722.81
2022-09-24T20:28:59.100Z,96722.09
2022-09-24T20:31:26.001Z,96715.13
2022-09-24T20:33:52.819Z,96722.09
2022-09-24T20:36:24.119Z,96722.09
2022-09-24T20:38:52.023Z,96719.94
2022-09-24T20:41:24.667Z,96722.63
2022-09-24T20:43:59.115Z,96721.28
2022-09-24T20:46:28.641Z,96721.91
2022-09-24T20:48:59.959Z,96720.56
2022-09-24T20:51:31.845Z,96719.88
2022-09-24T20:53:59.245Z,96717.81
2022-09-24T20:56:26.901Z,96708.03
2022-09-24T20:58:53.909Z,96710.06
2022-09-24T21:01:21.491Z,96711.41
2022-09-24T21:03:50.311Z,96705.91
2022-09-24T21:06:24.614Z,96716.22
2022-09-24T21:08:52.335Z,96714.09
2022-09-24T21:11:21.313Z,96716.75
2022-09-24T21:13:53.146Z,96712.50
2022-09-24T21:16:22.573Z,96722.19
2022-09-24T21:18:50.374Z,96729.84
2022-09-24T21:21:19.637Z,96730.56
2022-09-24T21:23:48.431Z,96734.66
2022-09-24T21:26:19.014Z,96729.78
2022-09-24T21:28:50.875Z,96727.72
2022-09-24T21:31:23.756Z,96733.22
2022-09-24T21:33:54.738Z,96736.69
2022-09-24T21:36:24.301Z,96736.63
2022-09-24T21:38:59.579Z,96732.44
2022-09-24T21:41:31.467Z,96733.75
2022-09-24T21:43:58.487Z,96732.34
2022-09-24T21:46:26.957Z,96728.88
2022-09-24T21:48:55.535Z,96736.38
2022-09-24T21:51:23.035Z,96736.38
2022-09-24T21:53:51.353Z,96739.03
2022-09-24T21:56:18.992Z,96740.28
2022-09-24T21:58:49.734Z,96735.38
2022-09-24T22:01:27.756Z,96745.72
2022-09-24T22:04:00.037Z,96742.16
2022-09-24T22:06:29.174Z,96735.84
2022-09-24T22:09:06.475Z,96735.66
2022-09-24T22:11:34.568Z,96741.19
2022-09-24T22:14:02.451Z,96739.69
2022-09-24T22:16:31.003Z,96747.25
2022-09-24T22:18:58.473Z,96752.13
2022-09-24T22:21:25.306Z,96752.13
2022-09-24T22:23:52.036Z,96745.91
2022-09-24T22:26:18.859Z,96756.16
2022-09-24T22:28:45.616Z,96751.94
2022-09-24T22:31:15.092Z,96745.72
2022-09-24T22:34:00.242Z,96745.72
2022-09-24T22:36:28.192Z,96741.47
2022-09-24T22:38:56.875Z,96746.16
2022-09-24T22:41:24.412Z,96746.72
2022-09-24T22:43:52.153Z,96747.25
2022-09-24T22:46:19.833Z,96751.25
2022-09-24T22:48:47.662Z,96744.31
2022-09-24T22:51:14.719Z,96742.81
2022-09-24T22:53:41.857Z,96738.53
2022-09-24T22:56:11.615Z,96743.16
2022-09-24T22:58:41.256Z,96743.69
2022-09-24T23:01:15.979Z,96746.31
2022-09-24T23:03:44.152Z,96746.13
2022-09-24T23:06:14.346Z,96752.91
2022-09-24T23:08:42.739Z,96748.63
2022-09-24T23:11:16.871Z,96746.38
2022-09-24T23:13:45.270Z,96742.13
2022-09-24T23:16:20.803Z,96737.06
2022-09-24T23:18:49.075Z,96733.50
2022-09-24T23:21:17.591Z,96733.31
2022-09-24T23:23:45.037Z,96727.00
2022-09-24T23:26:16.580Z,96731.72
2022-09-24T23:28:45.016Z,96731.59
2022-09-24T23:31:13.612Z,96726.03
2022-09-24T23:33:41.673Z,96724.41
2022-09-24T23:36:10.895Z,96716.06
2022-09-24T23:38:38.049Z,96725.63
2022-09-24T23:41:05.440Z,96720.75
2022-09-24T23:43:33.241Z,96713.81
2022-09-24T23:46:00.222Z,96709.66
2022-09-24T23:48:27.489Z,96715.06
2022-09-24T23:50:54.761Z,96710.88
2022-09-24T23:53:22.024Z,96716.91
2022-09-24T23:55:49.535Z,96711.22
2022-09-24T23:58:19.951Z,96709.78
